HELX  Luxor International  Airport

Luxor, Egypt

Add Bookmark
ICAO HELX
IATA LXR
Type Airport
Status Operational
Latitude
25° 40' 15" N
25.671000
Longitude
32° 42' 23" E
32.706600
Local (DST + 2) UTC (GMT + 2)
Jun 30, 2015 07:12 Jun 30, 2015 05:12
Sunrise-Sunset Local UTC
Begin Civil Twilight 04:34 02:34
Sunrise 05:00 03:00
Sunset 06:45 16:45
End Civil Twilight 07:11 17:11
VFR
VFR
MVFR
MVFR
IFR
IFR
LIFR
LIFR
Unknown
Unavailable

Current Weather

METAR Observed VFR
HELX 300400Z 00000KT CAVOK 25/09 Q1011 NOSIG Tue, Jun 30, 2015 @ 04:00 UTC
(1 Hour, 12 Minutes ago)
Visual Flight Rules
Wind Visibility Conditions
Calm 10 km or more
  • No significant weather
Temperatures Readings Precipitation
Current Temp
25°C
77°F
Dewpoint
9°C
48°F
Humidity 36%
Altimeter 29.85" Hg
Sea Level Pressure 1,011 mb
Field Elevation
88 m
289 ft
None Recorded

Forecast Weather

TAF
TAF HELX 292300Z 3000/0106 29006KT CAVOK
From To
Tue, Jun 30, 2015 @ 00:00 UTC Wed, Jul 1, 2015 @ 06:00 UTC
Wind Visibility Conditions
290° at 6 knots (11 kph) 10 km or more
  • No significant weather
-
-

CheckWX.com is intended as a tool to help pilots better visualize weather data. It is not intended as a substitute for an official weather briefing obtained from a Flight Service Station. CheckWX.com does not meet the FAA requirements for an official pre-flight weather briefing. Therefore, it's important that pilots still call and obtain an official FSS pre-flight weather briefing.

© 2007-2015 CheckWX.com
05:12:05 UTC